Decoded Metar for KRHI (RHINELANDER in WI, USA) (IATA:RHI) | Meteo·Mobile Aviation Weather
aviador You're here:

KRHI Decoded Metar

RHINELANDER in WI, USA
Report Time2018-08-21 06:53:00
UTC Time2018-08-21 07:52:15
Flight Rules ifr IFR
Wind020° at 04 kt
W.Decomp.*RWY 33: 2.4 kt HW 3.2 kt RCW
RWY 09: 1.6 kt HW 3.7 kt LCW
W.Rank020° ranks 32
Current wind is below 020° avg. (5.5)
Visibility9999 m
Phenomena:N/A
Clouds:Overcast 006 Hf
Expected CloudBase > 400 ft AGL from Temp-Dew spread
Ceiling600 ft
Temp18°C (ISA +6)
Dew Point17°C (94% RH)
QNH1016 hPa
Density Alt2,477 ft
Elevation1,591 ft
Report Wrong Elevation
Raw Report
KRHI 210653Z AUTO 02004KT 7SM OVC006 18/17 A2999 RMK AO2 SLP151
T01830172=

Extra information for KRHI:More info

Metar Taf Metar & Taf Last 4 Metars F.Rules Stats Wind Profile Meteogram Temp Stats Airport Information Weather charts Add Link Nearby VenuesMetar ALERT Operation Metar Decoded Social comments

AIRNAV info for KRHI